sensor_id;sensor_type;location;lat;lon;timestamp;pressure;altitude;pressure_sealevel;temperature;humidity
84427;BME280;74637;52.170;21.034;2023-12-28T00:01:43;101023.17;;;-0.04;82.02
84427;BME280;74637;52.170;21.034;2023-12-28T00:04:10;101014.30;;;-0.06;82.16
84427;BME280;74637;52.170;21.034;2023-12-28T00:06:36;101016.04;;;-0.06;82.16
84427;BME280;74637;52.170;21.034;2023-12-28T00:09:03;101020.22;;;-0.06;82.45
84427;BME280;74637;52.170;21.034;2023-12-28T00:11:30;101015.00;;;-0.07;82.34
84427;BME280;74637;52.170;21.034;2023-12-28T00:13:57;100994.06;;;-0.12;82.39
84427;BME280;74637;52.170;21.034;2023-12-28T00:16:23;100988.13;;;-0.14;82.44
84427;BME280;74637;52.170;21.034;2023-12-28T00:18:50;100980.98;;;-0.16;82.00
84427;BME280;74637;52.170;21.034;2023-12-28T00:21:16;100976.29;;;-0.18;82.43
84427;BME280;74637;52.170;21.034;2023-12-28T00:23:43;100969.14;;;-0.18;82.18
84427;BME280;74637;52.170;21.034;2023-12-28T00:26:09;100975.77;;;-0.17;82.33
84427;BME280;74637;52.170;21.034;2023-12-28T00:28:36;100976.80;;;-0.20;82.25
84427;BME280;74637;52.170;21.034;2023-12-28T00:31:02;100966.35;;;-0.24;82.17
84427;BME280;74637;52.170;21.034;2023-12-28T00:33:29;100960.40;;;-0.28;82.25
84427;BME280;74637;52.170;21.034;2023-12-28T00:35:55;100959.00;;;-0.32;82.34
84427;BME280;74637;52.170;21.034;2023-12-28T00:38:22;100956.55;;;-0.36;82.24
84427;BME280;74637;52.170;21.034;2023-12-28T00:40:48;100951.84;;;-0.41;82.63
84427;BME280;74637;52.170;21.034;2023-12-28T00:43:15;100954.25;;;-0.48;82.77
84427;BME280;74637;52.170;21.034;2023-12-28T00:45:41;100963.30;;;-0.53;82.67
84427;BME280;74637;52.170;21.034;2023-12-28T00:48:09;100976.52;;;-0.54;82.84
84427;BME280;74637;52.170;21.034;2023-12-28T00:50:35;100983.83;;;-0.53;82.82
84427;BME280;74637;52.170;21.034;2023-12-28T00:53:02;100990.62;;;-0.51;82.96
84427;BME280;74637;52.170;21.034;2023-12-28T00:55:28;101000.39;;;-0.49;82.96
84427;BME280;74637;52.170;21.034;2023-12-28T00:57:55;100993.27;;;-0.45;83.19
84427;BME280;74637;52.170;21.034;2023-12-28T01:00:21;100985.62;;;-0.39;83.03
84427;BME280;74637;52.170;21.034;2023-12-28T01:02:48;100964.90;;;-0.36;83.05
84427;BME280;74637;52.170;21.034;2023-12-28T01:05:16;100953.06;;;-0.35;83.16
84427;BME280;74637;52.170;21.034;2023-12-28T01:07:43;100949.41;;;-0.35;83.48
84427;BME280;74637;52.170;21.034;2023-12-28T01:10:09;100949.41;;;-0.36;83.58
84427;BME280;74637;52.170;21.034;2023-12-28T01:12:36;100952.20;;;-0.37;83.51
84427;BME280;74637;52.170;21.034;2023-12-28T01:15:03;100952.37;;;-0.38;83.45
84427;BME280;74637;52.170;21.034;2023-12-28T01:17:30;100947.66;;;-0.38;83.67
84427;BME280;74637;52.170;21.034;2023-12-28T01:19:56;100946.45;;;-0.37;83.67
84427;BME280;74637;52.170;21.034;2023-12-28T01:22:22;100950.10;;;-0.37;83.71
84427;BME280;74637;52.170;21.034;2023-12-28T01:24:49;100944.70;;;-0.39;83.76
84427;BME280;74637;52.170;21.034;2023-12-28T01:27:16;100932.16;;;-0.38;83.79
84427;BME280;74637;52.170;21.034;2023-12-28T01:29:42;100927.46;;;-0.39;84.05
84427;BME280;74637;52.170;21.034;2023-12-28T01:32:09;100926.92;;;-0.40;83.95
84427;BME280;74637;52.170;21.034;2023-12-28T01:34:35;100919.61;;;-0.42;83.89
84427;BME280;74637;52.170;21.034;2023-12-28T01:37:02;100912.29;;;-0.45;83.83
84427;BME280;74637;52.170;21.034;2023-12-28T01:39:29;100910.56;;;-0.45;84.02
84427;BME280;74637;52.170;21.034;2023-12-28T01:41:55;100910.73;;;-0.45;84.11
84427;BME280;74637;52.170;21.034;2023-12-28T01:44:22;100911.59;;;-0.45;83.95
84427;BME280;74637;52.170;21.034;2023-12-28T01:46:49;100904.64;;;-0.42;84.01
84427;BME280;74637;52.170;21.034;2023-12-28T01:49:17;100902.73;;;-0.39;84.01
84427;BME280;74637;52.170;21.034;2023-12-28T01:51:44;100899.44;;;-0.35;84.13
84427;BME280;74637;52.170;21.034;2023-12-28T01:54:11;100889.86;;;-0.32;84.12
84427;BME280;74637;52.170;21.034;2023-12-28T01:56:38;100886.21;;;-0.28;84.10
84427;BME280;74637;52.170;21.034;2023-12-28T01:59:05;100886.21;;;-0.26;84.03
84427;BME280;74637;52.170;21.034;2023-12-28T02:01:32;100877.15;;;-0.26;84.06
84427;BME280;74637;52.170;21.034;2023-12-28T02:03:58;100874.54;;;-0.25;83.91
84427;BME280;74637;52.170;21.034;2023-12-28T02:06:26;100871.23;;;-0.24;84.04
84427;BME280;74637;52.170;21.034;2023-12-28T02:08:52;100863.75;;;-0.25;84.07
84427;BME280;74637;52.170;21.034;2023-12-28T02:11:19;100847.71;;;-0.24;84.06
84427;BME280;74637;52.170;21.034;2023-12-28T02:13:46;100830.13;;;-0.26;83.99
84427;BME280;74637;52.170;21.034;2023-12-28T02:16:17;100817.94;;;-0.28;84.13
84427;BME280;74637;52.170;21.034;2023-12-28T02:18:49;100810.60;;;-0.31;83.98
84427;BME280;74637;52.170;21.034;2023-12-28T02:21:18;100801.20;;;-0.34;83.93
84427;BME280;74637;52.170;21.034;2023-12-28T02:23:47;100797.73;;;-0.35;84.05
84427;BME280;74637;52.170;21.034;2023-12-28T02:26:16;100794.92;;;-0.36;84.07
84427;BME280;74637;52.170;21.034;2023-12-28T02:28:43;100800.50;;;-0.35;84.25
84427;BME280;74637;52.170;21.034;2023-12-28T02:31:21;100802.95;;;-0.31;84.28
84427;BME280;74637;52.170;21.034;2023-12-28T02:34:00;100807.13;;;-0.26;84.34
84427;BME280;74637;52.170;21.034;2023-12-28T02:36:28;100806.59;;;-0.21;84.23
84427;BME280;74637;52.170;21.034;2023-12-28T02:38:56;100798.41;;;-0.15;84.30
84427;BME280;74637;52.170;21.034;2023-12-28T02:41:25;100791.10;;;-0.11;84.15
84427;BME280;74637;52.170;21.034;2023-12-28T02:43:52;100790.05;;;-0.07;84.05
84427;BME280;74637;52.170;21.034;2023-12-28T02:46:19;100787.78;;;-0.04;84.10
84427;BME280;74637;52.170;21.034;2023-12-28T02:48:46;100784.29;;;-0.04;83.86
84427;BME280;74637;52.170;21.034;2023-12-28T02:51:13;100780.45;;;-0.03;83.69
84427;BME280;74637;52.170;21.034;2023-12-28T02:53:39;100772.61;;;-0.00;83.65
84427;BME280;74637;52.170;21.034;2023-12-28T02:56:06;100765.46;;;0.02;83.77
84427;BME280;74637;52.170;21.034;2023-12-28T02:58:33;100766.86;;;0.04;83.51
84427;BME280;74637;52.170;21.034;2023-12-28T03:01:00;100772.09;;;0.07;83.70
84427;BME280;74637;52.170;21.034;2023-12-28T03:03:26;100766.67;;;0.12;83.67
84427;BME280;74637;52.170;21.034;2023-12-28T03:05:53;100754.46;;;0.18;83.67
84427;BME280;74637;52.170;21.034;2023-12-28T03:08:19;100751.31;;;0.22;83.35
84427;BME280;74637;52.170;21.034;2023-12-28T03:10:46;100737.70;;;0.26;83.63
84427;BME280;74637;52.170;21.034;2023-12-28T03:13:12;100727.41;;;0.29;82.99
84427;BME280;74637;52.170;21.034;2023-12-28T03:15:39;100723.40;;;0.30;82.99
84427;BME280;74637;52.170;21.034;2023-12-28T03:18:05;100725.66;;;0.29;82.86
84427;BME280;74637;52.170;21.034;2023-12-28T03:20:32;100729.52;;;0.27;82.92
84427;BME280;74637;52.170;21.034;2023-12-28T03:22:58;100727.43;;;0.22;82.83
84427;BME280;74637;52.170;21.034;2023-12-28T03:25:25;100721.34;;;0.17;82.67
84427;BME280;74637;52.170;21.034;2023-12-28T03:27:51;100722.22;;;0.13;82.98
84427;BME280;74637;52.170;21.034;2023-12-28T03:30:18;100712.64;;;0.10;83.03
84427;BME280;74637;52.170;21.034;2023-12-28T03:32:44;100707.08;;;0.09;83.08
84427;BME280;74637;52.170;21.034;2023-12-28T03:35:11;100705.67;;;0.08;82.97
84427;BME280;74637;52.170;21.034;2023-12-28T03:37:38;100704.46;;;0.07;83.09
84427;BME280;74637;52.170;21.034;2023-12-28T03:40:06;100698.54;;;0.08;83.20
84427;BME280;74637;52.170;21.034;2023-12-28T03:42:33;100692.60;;;0.11;82.88
84427;BME280;74637;52.170;21.034;2023-12-28T03:44:59;100689.11;;;0.13;82.94
84427;BME280;74637;52.170;21.034;2023-12-28T03:47:27;100684.41;;;0.16;82.85
84427;BME280;74637;52.170;21.034;2023-12-28T03:49:54;100686.99;;;0.18;82.75
84427;BME280;74637;52.170;21.034;2023-12-28T03:52:26;100680.38;;;0.21;82.20
84427;BME280;74637;52.170;21.034;2023-12-28T03:54:53;100674.07;;;0.25;82.16
84427;BME280;74637;52.170;21.034;2023-12-28T03:57:19;100669.70;;;0.28;82.15
84427;BME280;74637;52.170;21.034;2023-12-28T03:59:46;100671.61;;;0.30;81.78
84427;BME280;74637;52.170;21.034;2023-12-28T04:02:14;100665.17;;;0.31;81.74
84427;BME280;74637;52.170;21.034;2023-12-28T04:04:40;100663.24;;;0.32;81.72
84427;BME280;74637;52.170;21.034;2023-12-28T04:07:07;100662.20;;;0.31;81.33
84427;BME280;74637;52.170;21.034;2023-12-28T04:09:34;100660.27;;;0.31;81.25
84427;BME280;74637;52.170;21.034;2023-12-28T04:12:01;100656.79;;;0.33;81.47
84427;BME280;74637;52.170;21.034;2023-12-28T04:14:27;100644.77;;;0.32;81.26
84427;BME280;74637;52.170;21.034;2023-12-28T04:16:54;100627.33;;;0.32;80.88
84427;BME280;74637;52.170;21.034;2023-12-28T04:19:20;100629.77;;;0.33;80.68
84427;BME280;74637;52.170;21.034;2023-12-28T04:21:47;100631.86;;;0.32;80.26
84427;BME280;74637;52.170;21.034;2023-12-28T04:24:13;100629.77;;;0.33;79.93
84427;BME280;74637;52.170;21.034;2023-12-28T04:26:40;100620.00;;;0.32;80.16
84427;BME280;74637;52.170;21.034;2023-12-28T04:29:06;100609.02;;;0.32;79.90
84427;BME280;74637;52.170;21.034;2023-12-28T04:31:33;100610.77;;;0.30;80.26
84427;BME280;74637;52.170;21.034;2023-12-28T04:34:00;100612.52;;;0.29;80.21
84427;BME280;74637;52.170;21.034;2023-12-28T04:36:26;100613.41;;;0.28;80.00
84427;BME280;74637;52.170;21.034;2023-12-28T04:38:53;100610.95;;;0.28;79.61
84427;BME280;74637;52.170;21.034;2023-12-28T04:41:20;100599.96;;;0.30;79.47
84427;BME280;74637;52.170;21.034;2023-12-28T04:43:46;100590.89;;;0.32;79.10
84427;BME280;74637;52.170;21.034;2023-12-28T04:46:13;100586.52;;;0.33;79.27
84427;BME280;74637;52.170;21.034;2023-12-28T04:48:39;100582.86;;;0.34;78.86
84427;BME280;74637;52.170;21.034;2023-12-28T04:51:06;100584.77;;;0.36;78.62
84427;BME280;74637;52.170;21.034;2023-12-28T04:53:32;100582.33;;;0.37;79.03
84427;BME280;74637;52.170;21.034;2023-12-28T04:56:00;100583.88;;;0.38;78.99
84427;BME280;74637;52.170;21.034;2023-12-28T04:58:26;100569.23;;;0.39;78.94
84427;BME280;74637;52.170;21.034;2023-12-28T05:00:53;100566.96;;;0.39;78.57
84427;BME280;74637;52.170;21.034;2023-12-28T05:03:19;100559.46;;;0.40;78.21
84427;BME280;74637;52.170;21.034;2023-12-28T05:05:46;100558.58;;;0.41;78.44
84427;BME280;74637;52.170;21.034;2023-12-28T05:08:12;100558.73;;;0.45;78.32
84427;BME280;74637;52.170;21.034;2023-12-28T05:10:39;100541.30;;;0.46;77.96
84427;BME280;74637;52.170;21.034;2023-12-28T05:13:05;100542.33;;;0.47;78.05
84427;BME280;74637;52.170;21.034;2023-12-28T05:15:32;100543.73;;;0.48;78.12
84427;BME280;74637;52.170;21.034;2023-12-28T05:17:59;100536.40;;;0.47;78.29
84427;BME280;74637;52.170;21.034;2023-12-28T05:20:25;100535.36;;;0.48;77.92
84427;BME280;74637;52.170;21.034;2023-12-28T05:22:52;100523.86;;;0.46;77.82
84427;BME280;74637;52.170;21.034;2023-12-28T05:25:18;100524.73;;;0.45;77.70
84427;BME280;74637;52.170;21.034;2023-12-28T05:27:45;100524.05;;;0.44;77.66
84427;BME280;74637;52.170;21.034;2023-12-28T05:30:11;100521.61;;;0.42;77.96
84427;BME280;74637;52.170;21.034;2023-12-28T05:32:38;100516.23;;;0.40;77.82
84427;BME280;74637;52.170;21.034;2023-12-28T05:35:05;100503.16;;;0.38;77.42
84427;BME280;74637;52.170;21.034;2023-12-28T05:37:32;100489.22;;;0.37;77.74
84427;BME280;74637;52.170;21.034;2023-12-28T05:39:58;100486.77;;;0.37;77.65
84427;BME280;74637;52.170;21.034;2023-12-28T05:42:25;100480.68;;;0.36;77.90
84427;BME280;74637;52.170;21.034;2023-12-28T05:44:51;100474.59;;;0.35;77.60
84427;BME280;74637;52.170;21.034;2023-12-28T05:47:18;100472.85;;;0.34;77.79
84427;BME280;74637;52.170;21.034;2023-12-28T05:49:45;100469.38;;;0.33;77.83
84427;BME280;74637;52.170;21.034;2023-12-28T05:52:11;100470.27;;;0.29;77.53
84427;BME280;74637;52.170;21.034;2023-12-28T05:54:41;100462.45;;;0.27;77.86
84427;BME280;74637;52.170;21.034;2023-12-28T05:57:09;100449.05;;;0.25;78.10
84427;BME280;74637;52.170;21.034;2023-12-28T05:59:39;100453.06;;;0.24;77.63
84427;BME280;74637;52.170;21.034;2023-12-28T06:02:08;100457.96;;;0.22;77.93
84427;BME280;74637;52.170;21.034;2023-12-28T06:04:34;100466.16;;;0.20;78.15
84427;BME280;74637;52.170;21.034;2023-12-28T06:07:04;100467.39;;;0.19;78.00
84427;BME280;74637;52.170;21.034;2023-12-28T06:09:31;100462.33;;;0.19;78.18
84427;BME280;74637;52.170;21.034;2023-12-28T06:11:58;100463.91;;;0.18;78.25
84427;BME280;74637;52.170;21.034;2023-12-28T06:14:24;100455.20;;;0.18;78.37
84427;BME280;74637;52.170;21.034;2023-12-28T06:16:51;100448.92;;;0.17;78.21
84427;BME280;74637;52.170;21.034;2023-12-28T06:19:18;100460.09;;;0.17;78.37
84427;BME280;74637;52.170;21.034;2023-12-28T06:21:44;100462.01;;;0.18;78.41
84427;BME280;74637;52.170;21.034;2023-12-28T06:24:11;100458.50;;;0.19;78.53
84427;BME280;74637;52.170;21.034;2023-12-28T06:26:44;100462.31;;;0.22;78.64
84427;BME280;74637;52.170;21.034;2023-12-28T06:29:11;100463.86;;;0.24;78.40
84427;BME280;74637;52.170;21.034;2023-12-28T06:31:38;100463.16;;;0.25;78.28
84427;BME280;74637;52.170;21.034;2023-12-28T06:34:05;100465.77;;;0.26;78.36
84427;BME280;74637;52.170;21.034;2023-12-28T06:36:32;100470.45;;;0.28;78.24
84427;BME280;74637;52.170;21.034;2023-12-28T06:38:59;100482.46;;;0.31;78.16
84427;BME280;74637;52.170;21.034;2023-12-28T06:41:26;100478.08;;;0.35;78.38
84427;BME280;74637;52.170;21.034;2023-12-28T06:43:53;100476.30;;;0.39;78.26
84427;BME280;74637;52.170;21.034;2023-12-28T06:46:19;100483.23;;;0.45;78.04
84427;BME280;74637;52.170;21.034;2023-12-28T06:48:46;100480.41;;;0.49;78.09
84427;BME280;74637;52.170;21.034;2023-12-28T06:51:17;100470.27;;;0.53;78.05
84427;BME280;74637;52.170;21.034;2023-12-28T06:53:45;100455.58;;;0.57;78.14
84427;BME280;74637;52.170;21.034;2023-12-28T06:56:12;100443.88;;;0.60;77.97
84427;BME280;74637;52.170;21.034;2023-12-28T06:58:38;100448.20;;;0.62;78.06
84427;BME280;74637;52.170;21.034;2023-12-28T07:01:06;100442.26;;;0.65;78.12
84427;BME280;74637;52.170;21.034;2023-12-28T07:03:35;100442.05;;;0.67;78.12
84427;BME280;74637;52.170;21.034;2023-12-28T07:06:02;100443.59;;;0.72;78.11
84427;BME280;74637;52.170;21.034;2023-12-28T07:08:31;100449.29;;;0.76;77.94
84427;BME280;74637;52.170;21.034;2023-12-28T07:10:58;100442.80;;;0.81;78.08
84427;BME280;74637;52.170;21.034;2023-12-28T07:13:25;100435.96;;;0.84;77.89
84427;BME280;74637;52.170;21.034;2023-12-28T07:15:51;100434.70;;;0.87;77.82
84427;BME280;74637;52.170;21.034;2023-12-28T07:18:18;100425.27;;;0.89;77.76
84427;BME280;74637;52.170;21.034;2023-12-28T07:20:44;100418.26;;;0.92;77.83
84427;BME280;74637;52.170;21.034;2023-12-28T07:23:11;100421.20;;;0.94;77.85
84427;BME280;74637;52.170;21.034;2023-12-28T07:25:38;100423.27;;;0.97;77.73
84427;BME280;74637;52.170;21.034;2023-12-28T07:28:04;100423.92;;;1.00;77.90
84427;BME280;74637;52.170;21.034;2023-12-28T07:30:31;100421.61;;;1.05;77.97
84427;BME280;74637;52.170;21.034;2023-12-28T07:32:57;100420.52;;;1.09;77.94
84427;BME280;74637;52.170;21.034;2023-12-28T07:35:24;100418.89;;;1.13;77.71
84427;BME280;74637;52.170;21.034;2023-12-28T07:37:50;100407.66;;;1.18;77.87
84427;BME280;74637;52.170;21.034;2023-12-28T07:40:17;100406.55;;;1.23;77.70
84427;BME280;74637;52.170;21.034;2023-12-28T07:42:43;100415.02;;;1.29;77.30
84427;BME280;74637;52.170;21.034;2023-12-28T07:45:10;100409.36;;;1.35;77.46
84427;BME280;74637;52.170;21.034;2023-12-28T07:47:37;100416.12;;;1.41;77.53
84427;BME280;74637;52.170;21.034;2023-12-28T07:50:04;100409.92;;;1.47;77.28
84427;BME280;74637;52.170;21.034;2023-12-28T07:52:31;100405.80;;;1.54;77.27
84427;BME280;74637;52.170;21.034;2023-12-28T07:54:57;100396.30;;;1.59;77.22
84427;BME280;74637;52.170;21.034;2023-12-28T07:57:25;100398.82;;;1.66;77.11
84427;BME280;74637;52.170;21.034;2023-12-28T07:59:52;100399.08;;;1.73;77.08
84427;BME280;74637;52.170;21.034;2023-12-28T08:02:18;100400.02;;;1.80;77.01
84427;BME280;74637;52.170;21.034;2023-12-28T08:04:45;100405.34;;;1.87;77.01
84427;BME280;74637;52.170;21.034;2023-12-28T08:07:11;100417.45;;;1.95;76.84
84427;BME280;74637;52.170;21.034;2023-12-28T08:09:38;100435.35;;;2.03;76.75
84427;BME280;74637;52.170;21.034;2023-12-28T08:12:05;100440.48;;;2.10;76.60
84427;BME280;74637;52.170;21.034;2023-12-28T08:14:31;100445.27;;;2.16;76.72
84427;BME280;74637;52.170;21.034;2023-12-28T08:16:58;100439.23;;;2.23;76.71
84427;BME280;74637;52.170;21.034;2023-12-28T08:19:24;100446.10;;;2.30;76.49
84427;BME280;74637;52.170;21.034;2023-12-28T08:21:51;100445.98;;;2.39;76.60
84427;BME280;74637;52.170;21.034;2023-12-28T08:24:17;100434.30;;;2.46;76.45
84427;BME280;74637;52.170;21.034;2023-12-28T08:26:44;100424.92;;;2.52;76.11
84427;BME280;74637;52.170;21.034;2023-12-28T08:29:11;100411.88;;;2.58;76.18
84427;BME280;74637;52.170;21.034;2023-12-28T08:31:37;100403.54;;;2.64;76.41
84427;BME280;74637;52.170;21.034;2023-12-28T08:34:04;100401.64;;;2.73;76.17
84427;BME280;74637;52.170;21.034;2023-12-28T08:36:30;100399.92;;;2.80;76.22
84427;BME280;74637;52.170;21.034;2023-12-28T08:38:57;100389.30;;;2.87;75.94
84427;BME280;74637;52.170;21.034;2023-12-28T08:41:24;100387.75;;;2.95;75.60
84427;BME280;74637;52.170;21.034;2023-12-28T08:43:50;100377.08;;;3.03;75.82
84427;BME280;74637;52.170;21.034;2023-12-28T08:46:18;100381.81;;;3.12;75.60
84427;BME280;74637;52.170;21.034;2023-12-28T08:48:45;100380.25;;;3.19;75.56
84427;BME280;74637;52.170;21.034;2023-12-28T08:51:12;100391.27;;;3.29;75.67
84427;BME280;74637;52.170;21.034;2023-12-28T08:53:40;100388.11;;;3.37;75.23
84427;BME280;74637;52.170;21.034;2023-12-28T08:56:16;100382.29;;;3.47;74.99
84427;BME280;74637;52.170;21.034;2023-12-28T08:58:44;100385.61;;;3.56;75.36
84427;BME280;74637;52.170;21.034;2023-12-28T09:01:17;100387.70;;;3.64;75.20
84427;BME280;74637;52.170;21.034;2023-12-28T09:03:45;100385.77;;;3.72;74.89
84427;BME280;74637;52.170;21.034;2023-12-28T09:06:11;100378.92;;;3.80;74.61
84427;BME280;74637;52.170;21.034;2023-12-28T09:08:41;100374.72;;;3.88;74.82
84427;BME280;74637;52.170;21.034;2023-12-28T09:11:12;100374.17;;;3.96;74.71
84427;BME280;74637;52.170;21.034;2023-12-28T09:13:39;100364.65;;;4.05;74.50
84427;BME280;74637;52.170;21.034;2023-12-28T09:16:07;100360.61;;;4.13;74.69
84427;BME280;74637;52.170;21.034;2023-12-28T09:18:35;100361.45;;;4.21;74.29
84427;BME280;74637;52.170;21.034;2023-12-28T09:21:06;100359.45;;;4.31;73.85
84427;BME280;74637;52.170;21.034;2023-12-28T09:23:34;100360.94;;;4.41;73.43
84427;BME280;74637;52.170;21.034;2023-12-28T09:26:02;100363.34;;;4.50;73.73
84427;BME280;74637;52.170;21.034;2023-12-28T09:28:32;100361.34;;;4.60;73.71
84427;BME280;74637;52.170;21.034;2023-12-28T09:31:03;100357.95;;;4.69;73.51
84427;BME280;74637;52.170;21.034;2023-12-28T09:33:30;100360.74;;;4.76;73.07
84427;BME280;74637;52.170;21.034;2023-12-28T09:35:57;100353.52;;;4.83;73.06
84427;BME280;74637;52.170;21.034;2023-12-28T09:38:23;100352.13;;;4.89;72.99
84427;BME280;74637;52.170;21.034;2023-12-28T09:40:52;100352.66;;;4.94;73.00
84427;BME280;74637;52.170;21.034;2023-12-28T09:43:24;100353.23;;;4.99;72.66
84427;BME280;74637;52.170;21.034;2023-12-28T09:45:52;100350.77;;;5.05;72.29
84427;BME280;74637;52.170;21.034;2023-12-28T09:48:20;100348.16;;;5.11;72.61
84427;BME280;74637;52.170;21.034;2023-12-28T09:50:52;100338.09;;;5.13;72.31
84427;BME280;74637;52.170;21.034;2023-12-28T09:53:25;100341.59;;;5.13;71.98
84427;BME280;74637;52.170;21.034;2023-12-28T09:55:53;100338.05;;;5.15;72.14
84427;BME280;74637;52.170;21.034;2023-12-28T09:58:21;100348.38;;;5.15;72.48
84427;BME280;74637;52.170;21.034;2023-12-28T10:00:49;100345.08;;;5.20;72.40
84427;BME280;74637;52.170;21.034;2023-12-28T10:03:17;100345.58;;;5.27;72.47
84427;BME280;74637;52.170;21.034;2023-12-28T10:05:46;100350.27;;;5.34;72.63
84427;BME280;74637;52.170;21.034;2023-12-28T10:08:14;100353.80;;;5.51;71.12
84427;BME280;74637;52.170;21.034;2023-12-28T10:10:42;100355.86;;;5.71;70.44
84427;BME280;74637;52.170;21.034;2023-12-28T10:13:10;100354.08;;;5.88;69.75
84427;BME280;74637;52.170;21.034;2023-12-28T10:15:37;100347.98;;;6.04;68.72
84427;BME280;74637;52.170;21.034;2023-12-28T10:18:04;100348.45;;;6.16;68.81
84427;BME280;74637;52.170;21.034;2023-12-28T10:20:31;100358.64;;;6.27;68.96
84427;BME280;74637;52.170;21.034;2023-12-28T10:22:59;100352.58;;;6.35;67.93
84427;BME280;74637;52.170;21.034;2023-12-28T10:25:26;100352.85;;;6.42;67.65
84427;BME280;74637;52.170;21.034;2023-12-28T10:27:54;100351.09;;;6.47;66.90
84427;BME280;74637;52.170;21.034;2023-12-28T10:30:21;100353.70;;;6.53;66.01
84427;BME280;74637;52.170;21.034;2023-12-28T10:32:47;100346.70;;;6.63;64.94
84427;BME280;74637;52.170;21.034;2023-12-28T10:35:14;100339.96;;;6.68;65.82
84427;BME280;74637;52.170;21.034;2023-12-28T10:37:43;100334.95;;;6.71;66.08
84427;BME280;74637;52.170;21.034;2023-12-28T10:40:14;100351.36;;;6.75;65.32
84427;BME280;74637;52.170;21.034;2023-12-28T10:42:54;100340.10;;;6.80;65.71
84427;BME280;74637;52.170;21.034;2023-12-28T10:45:25;100324.97;;;6.84;66.12
84427;BME280;74637;52.170;21.034;2023-12-28T10:48:12;100326.38;;;6.84;65.99
84427;BME280;74637;52.170;21.034;2023-12-28T10:50:47;100335.41;;;6.83;66.07
84427;BME280;74637;52.170;21.034;2023-12-28T10:53:45;100338.36;;;6.84;66.24
84427;BME280;74637;52.170;21.034;2023-12-28T10:56:28;100343.45;;;6.84;66.07
84427;BME280;74637;52.170;21.034;2023-12-28T11:01:28;100361.48;;;6.87;66.13
84427;BME280;74637;52.170;21.034;2023-12-28T11:04:03;100353.89;;;6.88;65.90
84427;BME280;74637;52.170;21.034;2023-12-28T11:06:35;100350.95;;;6.86;66.41
84427;BME280;74637;52.170;21.034;2023-12-28T11:09:04;100346.80;;;6.84;66.49
84427;BME280;74637;52.170;21.034;2023-12-28T11:11:32;100345.98;;;6.82;66.92
84427;BME280;74637;52.170;21.034;2023-12-28T11:14:00;100338.98;;;6.76;67.64
84427;BME280;74637;52.170;21.034;2023-12-28T11:16:28;100354.23;;;6.69;68.25
84427;BME280;74637;52.170;21.034;2023-12-28T11:18:55;100351.81;;;6.62;68.80
84427;BME280;74637;52.170;21.034;2023-12-28T11:21:23;100347.03;;;6.58;69.25
84427;BME280;74637;52.170;21.034;2023-12-28T11:23:50;100339.52;;;6.51;70.50
84427;BME280;74637;52.170;21.034;2023-12-28T11:26:20;100347.59;;;6.46;71.95
84427;BME280;74637;52.170;21.034;2023-12-28T11:28:47;100351.91;;;6.44;72.39
84427;BME280;74637;52.170;21.034;2023-12-28T11:31:15;100349.02;;;6.41;72.48
84427;BME280;74637;52.170;21.034;2023-12-28T11:33:46;100349.22;;;6.41;72.35
84427;BME280;74637;52.170;21.034;2023-12-28T11:36:25;100355.39;;;6.40;72.37
84427;BME280;74637;52.170;21.034;2023-12-28T11:38:56;100363.22;;;6.42;71.90
84427;BME280;74637;52.170;21.034;2023-12-28T11:41:27;100359.98;;;6.45;71.85
84427;BME280;74637;52.170;21.034;2023-12-28T11:43:54;100359.24;;;6.46;71.99
84427;BME280;74637;52.170;21.034;2023-12-28T11:46:21;100360.67;;;6.45;72.41
84427;BME280;74637;52.170;21.034;2023-12-28T11:48:48;100360.52;;;6.39;73.22
84427;BME280;74637;52.170;21.034;2023-12-28T11:51:15;100355.64;;;6.38;73.35
84427;BME280;74637;52.170;21.034;2023-12-28T11:53:44;100353.52;;;6.38;73.58
84427;BME280;74637;52.170;21.034;2023-12-28T11:56:15;100343.41;;;6.35;73.69
84427;BME280;74637;52.170;21.034;2023-12-28T11:58:42;100334.73;;;6.32;73.80
84427;BME280;74637;52.170;21.034;2023-12-28T12:01:12;100345.77;;;6.28;74.36
84427;BME280;74637;52.170;21.034;2023-12-28T12:03:39;100342.27;;;6.27;74.97
84427;BME280;74637;52.170;21.034;2023-12-28T12:06:06;100341.28;;;6.25;75.21
84427;BME280;74637;52.170;21.034;2023-12-28T12:08:33;100338.49;;;6.24;75.37
84427;BME280;74637;52.170;21.034;2023-12-28T12:11:04;100336.44;;;6.23;76.24
84427;BME280;74637;52.170;21.034;2023-12-28T12:13:31;100332.90;;;6.23;76.49
84427;BME280;74637;52.170;21.034;2023-12-28T12:15:58;100330.52;;;6.26;76.90
84427;BME280;74637;52.170;21.034;2023-12-28T12:18:25;100335.85;;;6.25;76.98
84427;BME280;74637;52.170;21.034;2023-12-28T12:20:52;100340.11;;;6.23;77.39
84427;BME280;74637;52.170;21.034;2023-12-28T12:23:19;100336.12;;;6.22;77.87
84427;BME280;74637;52.170;21.034;2023-12-28T12:25:46;100333.65;;;6.22;77.67
84427;BME280;74637;52.170;21.034;2023-12-28T12:28:13;100333.30;;;6.22;78.38
84427;BME280;74637;52.170;21.034;2023-12-28T12:30:58;100330.96;;;6.23;78.09
84427;BME280;74637;52.170;21.034;2023-12-28T12:33:27;100333.05;;;6.24;78.27
84427;BME280;74637;52.170;21.034;2023-12-28T12:35:54;100336.13;;;6.27;78.22
84427;BME280;74637;52.170;21.034;2023-12-28T12:38:21;100333.59;;;6.29;78.13
84427;BME280;74637;52.170;21.034;2023-12-28T12:40:51;100326.13;;;6.31;77.81
84427;BME280;74637;52.170;21.034;2023-12-28T12:43:18;100326.58;;;6.33;77.62
84427;BME280;74637;52.170;21.034;2023-12-28T12:45:46;100328.07;;;6.36;77.55
84427;BME280;74637;52.170;21.034;2023-12-28T12:48:13;100328.64;;;6.40;77.23
84427;BME280;74637;52.170;21.034;2023-12-28T12:50:39;100335.36;;;6.44;76.78
84427;BME280;74637;52.170;21.034;2023-12-28T12:53:06;100327.07;;;6.50;76.13